• Join FlightAware (Why Join?)
  • Login
  • US Flag 
09:05AM EDT


 

Airport Tracker/Info


-or-


 

Live Flight TrackerFlight Track Log ✈ N637DL ✈ 29-May-2012 ✈ KATL - KPHX

Flight Track Log - Related Links

Times and Time Zones

All times are in EDT time to prevent confusion due to time zone crossing. See the N637DL flight status page for this flight to view local times or setup timezone preferences in your user account.

Time Position Orientation Groundspeed Altitude Reporting Facility
EDT Latitude Longitude Course Direction KTS MPH feet Rate Location/Type
07:51PM 33.6500 -84.3667 59° Northeast 182 209 2,800  Level Atlanta TRACON
07:52PM 33.6833 -84.3000 15° North 248 285 4,500 2,280 Climbing Atlanta TRACON
07:52PM 33.7333 -84.2833 326° Northwest 266 306 7,200 2,400 Climbing Atlanta TRACON
07:54PM 33.8169 -84.3514 265° West 259 298 10,600 2,160 Climbing Atlanta Center
07:55PM 33.8081 -84.4664 270° West 284 327 12,900 2,100 Climbing Atlanta Center
07:56PM 33.8075 -84.6014 254° West 346 398 14,900 2,100 Climbing Atlanta Center
07:57PM 33.7778 -84.7236 253° West 372 428 17,100 2,220 Climbing Atlanta Center
07:58PM 33.7436 -84.8583 252° West 394 453 19,400 2,040 Climbing Atlanta Center
07:59PM 33.7092 -84.9878 254° West 418 481 21,200 1,740 Climbing Atlanta Center
08:00PM 33.6769 -85.1197 257° West 418 481 22,900 2,100 Climbing Atlanta Center
08:01PM 33.6506 -85.2567 272° West 418 481 25,500 1,920 Climbing Atlanta Center
08:02PM 33.6553 -85.3914 269° West 406 467 26,800 1,320 Climbing Atlanta Center
08:03PM 33.6539 -85.5286 260° West 406 467 28,200 1,320 Climbing Atlanta Center
08:04PM 33.6331 -85.6706 259° West 420 483 29,500 1,080 Climbing Atlanta Center
08:05PM 33.6128 -85.7950 265° West 428 493 30,400 960 Climbing Atlanta Center
08:06PM 33.6022 -85.9344 269° West 428 493 31,500 780 Climbing Atlanta Center
08:07PM 33.5997 -86.0864 270° West 435 501 32,000 780 Climbing Atlanta Center
08:08PM 33.5992 -86.2436 268° West 458 527 33,100 960 Climbing Atlanta Center
08:09PM 33.5942 -86.4056 269° West 463 533 34,000 420 Climbing Atlanta Center
08:10PM 33.5911 -86.5525 269° West 451 519 34,000  Level Atlanta Center
08:11PM 33.5881 -86.6994 269° West 451 519 34,000  Level Atlanta Center
08:12PM 33.5850 -86.8442 270° West 445 512 34,000  Level Atlanta Center
08:13PM 33.5856 -86.9936 268° West 440 506 34,000  Level Atlanta Center
08:15PM 33.5769 -87.2656 267° West 425 489 34,000  Level Memphis Center
08:16PM 33.5703 -87.4278 269° West 431 496 34,000  Level Memphis Center
08:17PM 33.5675 -87.5775 267° West 444 511 34,000  Level Memphis Center
08:18PM 33.5603 -87.7272 269° West 449 517 34,000  Level Memphis Center
08:19PM 33.5572 -87.8794 269° West 454 522 34,000  Level Memphis Center
08:20PM 33.5539 -88.0292 268° West 459 528 34,000  Level Memphis Center
08:21PM 33.5500 -88.1639 268° West 459 528 34,000  Level Memphis Center
08:22PM 33.5464 -88.3108 267° West 459 528 34,000  Level Memphis Center
08:23PM 33.5403 -88.4581 269° West 454 522 34,000  Level Memphis Center
08:24PM 33.5383 -88.6003 267° West 442 509 34,000  Level Memphis Center
08:25PM 33.5319 -88.7450 268° West 437 503 34,000  Level Memphis Center
08:26PM 33.5275 -88.8869 267° West 437 503 34,000  Level Memphis Center
08:27PM 33.5208 -89.0467 268° West 437 503 34,000  Level Memphis Center
08:28PM 33.5161 -89.1886 266° West 437 503 34,000  Level Memphis Center
08:29PM 33.5089 -89.3283 267° West 437 503 34,000  Level Memphis Center
08:30PM 33.5017 -89.4728 268° West 437 503 34,000  Level Memphis Center
08:31PM 33.4964 -89.6197 267° West 437 503 34,000  Level Memphis Center
08:32PM 33.4908 -89.7644 266° West 442 509 34,000  Level Memphis Center
08:33PM 33.4831 -89.9114 266° West 442 509 34,000  Level Memphis Center
08:34PM 33.4753 -90.0583 266° West 442 509 34,000  Level Memphis Center
08:35PM 33.4672 -90.1903 268° West 442 509 34,000  Level Memphis Center
08:36PM 33.4631 -90.3347 274° West 442 509 34,000  Level Memphis Center
08:37PM 33.4714 -90.4792 272° West 442 509 34,000  Level Memphis Center
08:38PM 33.4753 -90.6236 271° West 437 503 34,000  Level Memphis Center
08:39PM 33.4769 -90.7631 272° West 437 503 34,000  Level Memphis Center
08:40PM 33.4806 -90.9103 272° West 437 503 34,000  Level Memphis Center
08:41PM 33.4842 -91.0497 271° West 437 503 34,000  Level Memphis Center
08:42PM 33.4853 -91.1942 272° West 437 503 34,000  Level Memphis Center
08:43PM 33.4886 -91.3361 274° West 437 503 34,000  Level Memphis Center
08:45PM 33.5031 -91.5697 269° West 422 486 34,000  Level Fort Worth Center
08:46PM 33.5014 -91.7144 271° West 432 497 34,000  Level Fort Worth Center
08:47PM 33.5042 -91.8711 270° West 432 497 34,000  Level Fort Worth Center
08:48PM 33.5044 -92.0156 272° West 439 505 34,000  Level Fort Worth Center
08:49PM 33.5083 -92.1622 271° West 439 505 34,000  Level Fort Worth Center
08:50PM 33.5103 -92.3067 270° West 439 505 34,000  Level Fort Worth Center
08:51PM 33.5097 -92.4486 271° West 439 505 34,000  Level Fort Worth Center
08:52PM 33.5111 -92.5956 270° West 439 505 34,000  Level Fort Worth Center
08:53PM 33.5106 -92.7400 271° West 439 505 34,000  Level Fort Worth Center
08:54PM 33.5117 -92.8844 271° West 439 505 34,000  Level Fort Worth Center
08:55PM 33.5147 -93.0286 269° West 439 505 34,000  Level Fort Worth Center
08:56PM 33.5133 -93.1708 270° West 439 505 34,000  Level Fort Worth Center
08:57PM 33.5139 -93.3128 271° West 439 505 34,000  Level Fort Worth Center
08:58PM 33.5161 -93.4547 270° West 439 505 34,000  Level Fort Worth Center
08:59PM 33.5161 -93.5867 270° West 444 511 34,000  Level Fort Worth Center
09:00PM 33.5161 -93.7286 272° West 439 505 34,000  Level Fort Worth Center
09:01PM 33.5203 -93.8706 270° West 439 505 34,000  Level Fort Worth Center
09:02PM 33.5203 -94.0175 261° West 439 505 34,000  Level Fort Worth Center
09:03PM 33.5011 -94.1603 257° West 439 505 34,000  Level Fort Worth Center
09:04PM 33.4733 -94.3031 256° West 439 505 34,000  Level Fort Worth Center
09:05PM 33.4453 -94.4411 257° West 439 505 34,000  Level Fort Worth Center
09:06PM 33.4172 -94.5814 257° West 439 505 34,000  Level Fort Worth Center
09:07PM 33.3892 -94.7217 257° West 439 505 34,000  Level Fort Worth Center
09:08PM 33.3628 -94.8592 257° West 434 499 34,000  Level Fort Worth Center
09:09PM 33.3364 -94.9992 256° West 434 499 34,000  Level Fort Worth Center
09:10PM 33.3075 -95.1392 257° West 434 499 34,000  Level Fort Worth Center
09:11PM 33.2808 -95.2764 255° West 434 499 34,000  Level Fort Worth Center
09:12PM 33.2497 -95.4164 258° West 434 499 34,000  Level Fort Worth Center
09:13PM 33.2247 -95.5558 259° West 434 499 34,000  Level Fort Worth Center
09:14PM 33.1997 -95.7056 256° West 427 491 34,000  Level Fort Worth Center
09:15PM 33.1703 -95.8500 256° West 427 491 34,000  Level Fort Worth Center
09:16PM 33.1444 -95.9744 257° West 437 503 34,000  Level Fort Worth Center
09:17PM 33.1169 -96.1161 256° West 437 503 34,000  Level Fort Worth Center
09:18PM 33.0869 -96.2556 256° West 437 503 34,000  Level Fort Worth Center
09:19PM 33.0569 -96.3997 256° West 437 503 34,000  Level Fort Worth Center
09:20PM 33.0286 -96.5389 255° West 432 497 34,000  Level Fort Worth Center
09:21PM 32.9983 -96.6778 255° West 432 497 34,000  Level Fort Worth Center
09:22PM 32.9636 -96.8317 255° West 432 497 34,000  Level Fort Worth Center
09:23PM 32.9328 -96.9728 256° West 443 510 34,000  Level Fort Worth Center
09:24PM 32.9061 -97.1017 256° West 438 504 34,000  Level Fort Worth Center
09:25PM 32.8750 -97.2528 257° West 433 498 34,000  Level Fort Worth Center
09:26PM 32.8481 -97.3911 257° West 455 524 34,000  Level Fort Worth Center
09:27PM 32.8228 -97.5247 256° West 449 517 34,000  Level Fort Worth Center
09:28PM 32.7933 -97.6656 257° West 443 510 34,000  Level Fort Worth Center
09:29PM 32.7658 -97.8061 257° West 435 501 34,000  Level Fort Worth Center
09:30PM 32.7383 -97.9419 259° West 435 501 34,000  Level Fort Worth Center
09:31PM 32.7125 -98.0975 262° West 435 501 34,000  Level Fort Worth Center
09:32PM 32.6950 -98.2378 262° West 435 501 34,000  Level Fort Worth Center
09:33PM 32.6772 -98.3808 262° West 430 495 34,000  Level Fort Worth Center
09:34PM 32.6636 -98.5017 260° West 428 493 34,000  Level Fort Worth Center
09:35PM 32.6436 -98.6422 261° West 428 493 34,000  Level Fort Worth Center
09:36PM 32.6256 -98.7825 260° West 428 493 34,000  Level Fort Worth Center
09:37PM 32.6050 -98.9203 262° West 428 493 34,000  Level Fort Worth Center
09:38PM 32.5886 -99.0606 261° West 428 493 34,000  Level Fort Worth Center
09:39PM 32.5700 -99.2006 261° West 428 493 34,000  Level Fort Worth Center
09:40PM 32.5514 -99.3408 261° West 433 498 34,000  Level Fort Worth Center
09:41PM 32.5322 -99.4833 260° West 433 498 34,000  Level Fort Worth Center
09:42PM 32.5111 -99.6208 261° West 433 498 34,000  Level Fort Worth Center
09:43PM 32.4919 -99.7631 262° West 433 498 34,000  Level Fort Worth Center
09:44PM 32.4722 -99.9203 269° West 439 505 34,000  Level Fort Worth Center
09:45PM 32.4692 -100.0606 267° West 444 511 34,000  Level Fort Worth Center
09:46PM 32.4619 -100.2031 265° West 439 505 34,000  Level Fort Worth Center
09:47PM 32.4525 -100.3431 266° West 439 505 34,000  Level Fort Worth Center
09:48PM 32.4450 -100.4856 266° West 439 505 34,000  Level Fort Worth Center
09:49PM 32.4375 -100.6231 266° West 439 505 34,000  Level Fort Worth Center
09:50PM 32.4294 -100.7631 265° West 434 499 34,000  Level Fort Worth Center
09:51PM 32.4194 -100.9031 267° West 434 499 34,000  Level Fort Worth Center
09:52PM 32.4133 -101.0431 264° West 434 499 34,000  Level Fort Worth Center
09:53PM 32.4011 -101.1803 266° West 434 499 34,000  Level Fort Worth Center
09:54PM 32.3925 -101.3178 266° West 434 499 34,000  Level Fort Worth Center
09:55PM 32.3844 -101.4478 266° West 413 475 34,000  Level Fort Worth Center
09:56PM 32.3758 -101.5828 265° West 413 475 34,000  Level Fort Worth Center
09:57PM 32.3650 -101.7175 267° West 406 467 34,000  Level Fort Worth Center
09:58PM 32.3583 -101.8500 264° West 401 461 34,000  Level Fort Worth Center
09:59PM 32.3472 -101.9797 264° West 406 467 34,000  Level Fort Worth Center
10:00PM 32.3364 -102.1094 265° West 406 467 34,000  Level Fort Worth Center
10:01PM 32.3275 -102.2294 264° West 406 467 34,000  Level Fort Worth Center
10:02PM 32.3161 -102.3614 265° West 406 467 34,000  Level Fort Worth Center
10:03PM 32.3067 -102.4961 265° West 406 467 34,000  Level Fort Worth Center
10:04PM 32.2964 -102.6406 265° West 406 467 34,000  Level Fort Worth Center
10:05PM 32.2867 -102.7725 265° West 406 467 34,000  Level Fort Worth Center
10:06PM 32.2769 -102.9047 265° West 406 467 34,000  Level Fort Worth Center
10:07PM 32.2614 -103.1253 264° West 401 461 34,000  Level Albuquerque Center
10:08PM 32.2492 -103.2561 264° West 408 470 34,000  Level Albuquerque Center
10:09PM 32.2369 -103.3867 265° West 408 470 34,000  Level Albuquerque Center
10:10PM 32.2264 -103.5172 264° West 408 470 34,000  Level Albuquerque Center
10:11PM 32.2158 -103.6450 264° West 408 470 34,000  Level Albuquerque Center
10:12PM 32.2033 -103.7781 263° West 408 470 34,000  Level Albuquerque Center
10:13PM 32.1906 -103.9086 262° West 408 470 34,000  Level Albuquerque Center
10:14PM 32.1769 -104.0244 265° West 409 471 34,000  Level Albuquerque Center
10:15PM 32.1681 -104.1522 265° West 404 465 34,000  Level Albuquerque Center
10:16PM 32.1589 -104.2847 263° West 409 471 34,000  Level Albuquerque Center
10:17PM 32.1456 -104.4103 264° West 409 471 34,000  Level Albuquerque Center
10:18PM 32.1342 -104.5456 263° West 409 471 34,000  Level Albuquerque Center
10:19PM 32.1203 -104.6758 264° West 409 471 34,000  Level Albuquerque Center
10:20PM 32.1086 -104.8058 263° West 409 471 34,000  Level Albuquerque Center
10:21PM 32.0947 -104.9361 263° West 409 471 34,000  Level Albuquerque Center
10:22PM 32.0806 -105.0664 263° West 409 471 34,000  Level Albuquerque Center
10:23PM 32.0664 -105.1964 268° West 409 471 34,000  Level Albuquerque Center
10:24PM 32.0622 -105.3289 274° West 409 471 34,000  Level Albuquerque Center
10:25PM 32.0708 -105.4608 275° West 409 471 34,000  Level Albuquerque Center
10:26PM 32.0811 -105.5903 274° West 403 464 34,000  Level Albuquerque Center
10:27PM 32.0892 -105.7250 274° West 403 464 34,000  Level Albuquerque Center
10:28PM 32.0972 -105.8572 275° West 403 464 34,000  Level Albuquerque Center
10:29PM 32.1072 -105.9892 274° West 408 470 34,000  Level Albuquerque Center
10:30PM 32.1147 -106.1239 274° West 408 470 34,000  Level Albuquerque Center
10:31PM 32.1225 -106.2586 275° West 408 470 34,000  Level Albuquerque Center
10:32PM 32.1319 -106.3931 275° West 408 470 34,000  Level Albuquerque Center
10:33PM 32.1414 -106.5303 275° West 413 475 34,000  Level Albuquerque Center
10:34PM 32.1506 -106.6625 272° West 413 475 34,000  Level Albuquerque Center
10:35PM 32.1553 -106.7972 274° West 413 475 34,000  Level Albuquerque Center
10:36PM 32.1642 -106.9319 272° West 418 481 34,000  Level Albuquerque Center
10:37PM 32.1689 -107.0669 273° West 418 481 34,000  Level Albuquerque Center
10:38PM 32.1753 -107.2164 273° West 423 487 34,000  Level Albuquerque Center
10:39PM 32.1817 -107.3536 275° West 418 481 34,000  Level Albuquerque Center
10:40PM 32.1919 -107.4861 273° West 423 487 34,000  Level Albuquerque Center
10:41PM 32.1981 -107.6236 273° West 423 487 34,000  Level Albuquerque Center
10:42PM 32.2039 -107.7608 273° West 423 487 34,000  Level Albuquerque Center
10:43PM 32.2097 -107.8933 273° West 423 487 34,000  Level Albuquerque Center
10:44PM 32.2153 -108.0308 274° West 423 487 34,000  Level Albuquerque Center
10:45PM 32.2228 -108.1706 273° West 423 487 34,000  Level Albuquerque Center
10:46PM 32.2281 -108.3056 273° West 423 487 34,000  Level Albuquerque Center
10:47PM 32.2331 -108.4381 274° West 423 487 34,000  Level Albuquerque Center
10:48PM 32.2403 -108.5683 273° West 412 474 34,000  Level Albuquerque Center
10:49PM 32.2453 -108.6933 274° West 401 461 34,000  Level Albuquerque Center
10:50PM 32.2519 -108.8161 272° West 390 449 34,000  Level Albuquerque Center
10:51PM 32.2567 -108.9464 272° West 390 449 34,000  Level Albuquerque Center
10:52PM 32.2611 -109.0767 272° West 390 449 34,000  Level Albuquerque Center
10:53PM 32.2656 -109.2067 280° West 395 455 34,000  Level Albuquerque Center
10:54PM 32.2842 -109.3372 286° West 402 463 34,000  Level Albuquerque Center
10:55PM 32.3156 -109.4656 287° West 407 468 34,000  Level Albuquerque Center
10:56PM 32.3467 -109.5892 285° West 407 468 34,000  Level Albuquerque Center
10:57PM 32.3756 -109.7128 287° West 401 461 34,000 -180 Level Albuquerque Center
10:58PM 32.4064 -109.8342 285° West 396 456 33,700 -1,140 Descending Albuquerque Center
10:59PM 32.4369 -109.9653 286° West 401 461 31,800 -1,920 Descending Albuquerque Center
11:00PM 32.4656 -110.0817 286° West 394 453 29,900 -2,100 Descending Albuquerque Center
11:01PM 32.4942 -110.2008 286° West 384 442 27,700 -2,220 Descending Albuquerque Center
11:02PM 32.5228 -110.3175 286° West 378 435 25,500 -1,860 Descending Albuquerque Center
11:03PM 32.5472 -110.4192 288° West 372 428 24,000 -780 Descending Albuquerque Center
11:04PM 32.5758 -110.5261 291° West 358 412 24,000 -300 Level Albuquerque Center
11:05PM 32.6122 -110.6383 303° West 353 406 23,500 -1,020 Descending Albuquerque Center
11:06PM 32.6719 -110.7467 303° West 353 406 22,000 -1,740 Descending Albuquerque Center
11:07PM 32.7253 -110.8450 303° West 353 406 20,100 -1,740 Descending Albuquerque Center
11:08PM 32.7769 -110.9408 302° West 353 406 18,600 -1,620 Descending Albuquerque Center
11:09PM 32.8222 -111.0267 302° West 343 395 16,900 -1,680 Descending Albuquerque Center
11:10PM 32.8656 -111.1103 298° West 315 362 15,300 -1,500 Descending Albuquerque Center
11:11PM 32.9044 -111.1961 299° West 304 350 13,900 -1,200 Descending Albuquerque Center
11:12PM 32.9397 -111.2717 299° West 299 344 13,000 -840 Descending Albuquerque Center
11:13PM 32.9806 -111.3578 298° West 299 344 12,300 -780 Descending Albuquerque Center
11:14PM 33.0194 -111.4439 315° West 299 344 11,500 -1,080 Descending Albuquerque Center
11:17PM 33.1500 -111.6000 342° North 298 343 8,700 -1,080 Descending Phoenix TRACON
11:18PM 33.2333 -111.6333 360° North 289 333 8,000 -720 Descending Phoenix TRACON
11:19PM 33.3000 -111.6333 360° North 246 283 7,300 -540 Descending Phoenix TRACON
11:20PM 33.3667 -111.6333 360° North 235 270 7,000 -180 Descending Phoenix TRACON
11:21PM 33.4167 -111.6333 292° West 188 216 7,000 -540 Level Phoenix TRACON
11:22PM 33.4333 -111.6833 270° West 180 207 6,000 -960 Descending Phoenix TRACON
11:23PM 33.4333 -111.7500 270° West 180 207 5,100 -960 Descending Phoenix TRACON
11:24PM 33.4333 -111.8000 270° West 175 201 4,100 -1,020 Descending Phoenix TRACON